sensor_id;sensor_type;location;lat;lon;timestamp;P1;durP1;ratioP1;P2;durP2;ratioP2
46607;SDS011;32330;51.936;7.184;2023-03-14T04:51:24;7.82;;;1.90;;
46607;SDS011;32330;51.936;7.184;2023-03-14T04:53:52;7.60;;;1.73;;
46607;SDS011;32330;51.936;7.184;2023-03-14T04:56:20;5.97;;;2.05;;
46607;SDS011;32330;51.936;7.184;2023-03-14T04:58:47;7.25;;;2.00;;
46607;SDS011;32330;51.936;7.184;2023-03-14T05:01:16;8.85;;;2.97;;
46607;SDS011;32330;51.936;7.184;2023-03-14T05:04:11;7.10;;;2.13;;
46607;SDS011;32330;51.936;7.184;2023-03-14T05:06:49;8.10;;;2.40;;
46607;SDS011;32330;51.936;7.184;2023-03-14T05:09:30;7.70;;;1.87;;
46607;SDS011;32330;51.936;7.184;2023-03-14T05:12:15;5.90;;;1.67;;
46607;SDS011;32330;51.936;7.184;2023-03-14T05:15:06;11.82;;;2.45;;
46607;SDS011;32330;51.936;7.184;2023-03-14T05:18:09;8.95;;;2.20;;
46607;SDS011;32330;51.936;7.184;2023-03-14T05:21:10;7.15;;;1.60;;
46607;SDS011;32330;51.936;7.184;2023-03-14T05:24:06;7.75;;;1.92;;
46607;SDS011;32330;51.936;7.184;2023-03-14T05:26:52;8.50;;;1.88;;
46607;SDS011;32330;51.936;7.184;2023-03-14T05:29:31;6.68;;;2.38;;
46607;SDS011;32330;51.936;7.184;2023-03-14T05:32:21;7.15;;;1.90;;
46607;SDS011;32330;51.936;7.184;2023-03-14T05:34:58;9.45;;;2.65;;
46607;SDS011;32330;51.936;7.184;2023-03-14T05:38:02;5.07;;;1.40;;
46607;SDS011;32330;51.936;7.184;2023-03-14T05:40:48;7.28;;;1.63;;
46607;SDS011;32330;51.936;7.184;2023-03-14T05:43:36;5.50;;;1.92;;
46607;SDS011;32330;51.936;7.184;2023-03-14T05:46:23;6.70;;;1.65;;
46607;SDS011;32330;51.936;7.184;2023-03-14T05:49:01;9.23;;;1.70;;
46607;SDS011;32330;51.936;7.184;2023-03-14T05:51:47;4.05;;;1.38;;
46607;SDS011;32330;51.936;7.184;2023-03-14T05:54:44;6.47;;;1.73;;
46607;SDS011;32330;51.936;7.184;2023-03-14T05:57:24;7.10;;;1.75;;
46607;SDS011;32330;51.936;7.184;2023-03-14T06:00:07;6.13;;;1.65;;
46607;SDS011;32330;51.936;7.184;2023-03-14T06:02:40;6.90;;;1.33;;
46607;SDS011;32330;51.936;7.184;2023-03-14T06:05:17;3.70;;;0.95;;
46607;SDS011;32330;51.936;7.184;2023-03-14T06:07:45;6.22;;;1.70;;
46607;SDS011;32330;51.936;7.184;2023-03-14T06:10:13;4.93;;;1.08;;
46607;SDS011;32330;51.936;7.184;2023-03-14T06:12:40;3.45;;;1.40;;
46607;SDS011;32330;51.936;7.184;2023-03-14T06:15:07;3.42;;;0.70;;
46607;SDS011;32330;51.936;7.184;2023-03-14T06:17:35;3.17;;;0.90;;
46607;SDS011;32330;51.936;7.184;2023-03-14T06:20:07;3.03;;;0.90;;
46607;SDS011;32330;51.936;7.184;2023-03-14T06:22:35;4.80;;;1.10;;
46607;SDS011;32330;51.936;7.184;2023-03-14T06:25:04;4.97;;;0.82;;
46607;SDS011;32330;51.936;7.184;2023-03-14T06:27:33;1.77;;;0.80;;
46607;SDS011;32330;51.936;7.184;2023-03-14T06:30:00;2.85;;;1.33;;
46607;SDS011;32330;51.936;7.184;2023-03-14T06:32:29;2.42;;;0.70;;
46607;SDS011;32330;51.936;7.184;2023-03-14T06:35:00;2.47;;;0.70;;
46607;SDS011;32330;51.936;7.184;2023-03-14T06:37:28;1.40;;;0.73;;
46607;SDS011;32330;51.936;7.184;2023-03-14T06:39:56;2.15;;;0.80;;
46607;SDS011;32330;51.936;7.184;2023-03-14T06:42:50;3.15;;;0.70;;
46607;SDS011;32330;51.936;7.184;2023-03-14T06:45:19;2.05;;;0.93;;
46607;SDS011;32330;51.936;7.184;2023-03-14T06:47:47;3.92;;;1.20;;
46607;SDS011;32330;51.936;7.184;2023-03-14T06:50:17;3.50;;;1.30;;
46607;SDS011;32330;51.936;7.184;2023-03-14T06:52:46;3.55;;;0.98;;
46607;SDS011;32330;51.936;7.184;2023-03-14T06:55:16;2.47;;;1.20;;
46607;SDS011;32330;51.936;7.184;2023-03-14T06:57:51;2.35;;;0.98;;
46607;SDS011;32330;51.936;7.184;2023-03-14T07:00:25;2.72;;;0.80;;
46607;SDS011;32330;51.936;7.184;2023-03-14T07:02:54;1.50;;;0.70;;
46607;SDS011;32330;51.936;7.184;2023-03-14T07:05:26;1.45;;;0.75;;
46607;SDS011;32330;51.936;7.184;2023-03-14T07:07:54;2.17;;;0.80;;
46607;SDS011;32330;51.936;7.184;2023-03-14T07:10:22;4.82;;;1.15;;
46607;SDS011;32330;51.936;7.184;2023-03-14T07:12:50;3.80;;;1.17;;
46607;SDS011;32330;51.936;7.184;2023-03-14T07:15:27;2.40;;;1.50;;
46607;SDS011;32330;51.936;7.184;2023-03-14T07:21:06;1.83;;;1.20;;
46607;SDS011;32330;51.936;7.184;2023-03-14T07:23:38;2.22;;;1.75;;
46607;SDS011;32330;51.936;7.184;2023-03-14T07:26:10;2.65;;;2.03;;
46607;SDS011;32330;51.936;7.184;2023-03-14T07:28:46;2.22;;;1.40;;
46607;SDS011;32330;51.936;7.184;2023-03-14T07:31:16;3.58;;;1.58;;
46607;SDS011;32330;51.936;7.184;2023-03-14T07:33:43;3.33;;;1.42;;
46607;SDS011;32330;51.936;7.184;2023-03-14T07:36:10;2.05;;;1.52;;
46607;SDS011;32330;51.936;7.184;2023-03-14T07:38:41;3.13;;;1.60;;
46607;SDS011;32330;51.936;7.184;2023-03-14T07:41:28;1.95;;;1.55;;
46607;SDS011;32330;51.936;7.184;2023-03-14T07:44:22;2.75;;;1.55;;
46607;SDS011;32330;51.936;7.184;2023-03-14T07:46:49;3.08;;;1.95;;
46607;SDS011;32330;51.936;7.184;2023-03-14T07:49:16;3.10;;;2.10;;
46607;SDS011;32330;51.936;7.184;2023-03-14T07:51:43;2.50;;;1.80;;
46607;SDS011;32330;51.936;7.184;2023-03-14T07:54:10;3.50;;;1.98;;
46607;SDS011;32330;51.936;7.184;2023-03-14T07:56:37;2.45;;;1.70;;
46607;SDS011;32330;51.936;7.184;2023-03-14T07:59:04;4.25;;;2.00;;
46607;SDS011;32330;51.936;7.184;2023-03-14T08:01:32;3.75;;;2.05;;
46607;SDS011;32330;51.936;7.184;2023-03-14T08:03:59;2.97;;;2.20;;
46607;SDS011;32330;51.936;7.184;2023-03-14T08:06:26;2.45;;;1.75;;
46607;SDS011;32330;51.936;7.184;2023-03-14T08:08:53;2.33;;;1.58;;
46607;SDS011;32330;51.936;7.184;2023-03-14T08:11:20;2.67;;;1.67;;
46607;SDS011;32330;51.936;7.184;2023-03-14T08:13:47;3.88;;;1.77;;
46607;SDS011;32330;51.936;7.184;2023-03-14T08:16:15;5.80;;;1.95;;
46607;SDS011;32330;51.936;7.184;2023-03-14T08:18:44;2.80;;;2.03;;
46607;SDS011;32330;51.936;7.184;2023-03-14T08:21:11;2.78;;;2.03;;
46607;SDS011;32330;51.936;7.184;2023-03-14T08:23:38;2.25;;;1.73;;
46607;SDS011;32330;51.936;7.184;2023-03-14T08:26:05;2.25;;;1.90;;
46607;SDS011;32330;51.936;7.184;2023-03-14T08:28:32;1.98;;;1.67;;
46607;SDS011;32330;51.936;7.184;2023-03-14T08:31:00;3.03;;;2.47;;
46607;SDS011;32330;51.936;7.184;2023-03-14T08:33:28;2.42;;;1.80;;
46607;SDS011;32330;51.936;7.184;2023-03-14T08:35:58;3.35;;;2.00;;
46607;SDS011;32330;51.936;7.184;2023-03-14T08:38:26;3.35;;;2.33;;
46607;SDS011;32330;51.936;7.184;2023-03-14T08:40:56;3.90;;;1.90;;
46607;SDS011;32330;51.936;7.184;2023-03-14T08:43:24;3.22;;;2.13;;
46607;SDS011;32330;51.936;7.184;2023-03-14T08:45:51;4.68;;;3.17;;
46607;SDS011;32330;51.936;7.184;2023-03-14T08:48:18;2.83;;;1.80;;
46607;SDS011;32330;51.936;7.184;2023-03-14T08:50:45;3.15;;;1.80;;
46607;SDS011;32330;51.936;7.184;2023-03-14T08:53:13;2.65;;;2.00;;
46607;SDS011;32330;51.936;7.184;2023-03-14T08:55:40;2.65;;;1.70;;
46607;SDS011;32330;51.936;7.184;2023-03-14T08:58:07;2.20;;;1.85;;
46607;SDS011;32330;51.936;7.184;2023-03-14T09:00:34;2.28;;;1.55;;
46607;SDS011;32330;51.936;7.184;2023-03-14T09:03:01;2.38;;;1.73;;
46607;SDS011;32330;51.936;7.184;2023-03-14T09:05:28;5.10;;;3.15;;
46607;SDS011;32330;51.936;7.184;2023-03-14T09:07:58;3.00;;;2.15;;
46607;SDS011;32330;51.936;7.184;2023-03-14T09:10:26;2.45;;;1.45;;
46607;SDS011;32330;51.936;7.184;2023-03-14T09:12:53;2.53;;;2.00;;
46607;SDS011;32330;51.936;7.184;2023-03-14T09:15:22;4.70;;;1.60;;
46607;SDS011;32330;51.936;7.184;2023-03-14T09:17:49;2.72;;;1.45;;
46607;SDS011;32330;51.936;7.184;2023-03-14T09:20:16;1.88;;;0.80;;
46607;SDS011;32330;51.936;7.184;2023-03-14T09:22:43;1.15;;;0.40;;
46607;SDS011;32330;51.936;7.184;2023-03-14T09:25:10;0.60;;;0.40;;
46607;SDS011;32330;51.936;7.184;2023-03-14T09:27:38;2.90;;;0.60;;
46607;SDS011;32330;51.936;7.184;2023-03-14T09:30:06;1.00;;;0.50;;
46607;SDS011;32330;51.936;7.184;2023-03-14T09:32:34;1.33;;;0.40;;
46607;SDS011;32330;51.936;7.184;2023-03-14T09:35:01;1.15;;;0.50;;
46607;SDS011;32330;51.936;7.184;2023-03-14T09:37:28;0.77;;;0.30;;
46607;SDS011;32330;51.936;7.184;2023-03-14T09:39:55;1.45;;;0.70;;
46607;SDS011;32330;51.936;7.184;2023-03-14T09:42:22;1.27;;;0.55;;
46607;SDS011;32330;51.936;7.184;2023-03-14T09:44:55;1.17;;;0.45;;
46607;SDS011;32330;51.936;7.184;2023-03-14T09:47:25;1.10;;;0.50;;
46607;SDS011;32330;51.936;7.184;2023-03-14T09:49:53;1.40;;;0.40;;
46607;SDS011;32330;51.936;7.184;2023-03-14T09:52:21;1.05;;;0.30;;
46607;SDS011;32330;51.936;7.184;2023-03-14T09:54:52;1.63;;;0.50;;
46607;SDS011;32330;51.936;7.184;2023-03-14T09:57:21;1.85;;;0.50;;
46607;SDS011;32330;51.936;7.184;2023-03-14T09:59:51;2.22;;;0.60;;
46607;SDS011;32330;51.936;7.184;2023-03-14T10:02:31;0.47;;;0.30;;
46607;SDS011;32330;51.936;7.184;2023-03-14T10:05:00;2.22;;;0.60;;
46607;SDS011;32330;51.936;7.184;2023-03-14T10:07:29;1.58;;;0.70;;
46607;SDS011;32330;51.936;7.184;2023-03-14T10:09:58;2.17;;;0.77;;
46607;SDS011;32330;51.936;7.184;2023-03-14T10:12:32;1.40;;;0.73;;
46607;SDS011;32330;51.936;7.184;2023-03-14T10:15:04;2.63;;;0.70;;
46607;SDS011;32330;51.936;7.184;2023-03-14T10:17:38;1.65;;;0.47;;
46607;SDS011;32330;51.936;7.184;2023-03-14T10:20:06;2.05;;;0.50;;
46607;SDS011;32330;51.936;7.184;2023-03-14T10:22:52;1.17;;;0.50;;
46607;SDS011;32330;51.936;7.184;2023-03-14T10:25:25;1.58;;;0.47;;
46607;SDS011;32330;51.936;7.184;2023-03-14T10:27:53;0.77;;;0.50;;
46607;SDS011;32330;51.936;7.184;2023-03-14T10:30:29;2.47;;;0.40;;
46607;SDS011;32330;51.936;7.184;2023-03-14T10:33:07;1.30;;;0.45;;
46607;SDS011;32330;51.936;7.184;2023-03-14T10:35:35;3.05;;;1.13;;
46607;SDS011;32330;51.936;7.184;2023-03-14T10:38:03;1.77;;;0.43;;
46607;SDS011;32330;51.936;7.184;2023-03-14T10:40:31;1.10;;;0.32;;
46607;SDS011;32330;51.936;7.184;2023-03-14T10:43:00;0.60;;;0.30;;
46607;SDS011;32330;51.936;7.184;2023-03-14T10:45:33;0.87;;;0.30;;
46607;SDS011;32330;51.936;7.184;2023-03-14T10:48:07;1.80;;;0.47;;
46607;SDS011;32330;51.936;7.184;2023-03-14T10:50:49;1.30;;;0.30;;
46607;SDS011;32330;51.936;7.184;2023-03-14T10:53:21;3.92;;;0.70;;
46607;SDS011;32330;51.936;7.184;2023-03-14T10:55:49;2.95;;;0.50;;
46607;SDS011;32330;51.936;7.184;2023-03-14T10:58:20;2.47;;;0.57;;
46607;SDS011;32330;51.936;7.184;2023-03-14T11:00:51;2.15;;;0.68;;
46607;SDS011;32330;51.936;7.184;2023-03-14T11:03:26;3.58;;;0.60;;
46607;SDS011;32330;51.936;7.184;2023-03-14T11:05:58;3.50;;;0.80;;
46607;SDS011;32330;51.936;7.184;2023-03-14T11:08:31;2.35;;;0.75;;
46607;SDS011;32330;51.936;7.184;2023-03-14T11:11:07;5.72;;;1.63;;
46607;SDS011;32330;51.936;7.184;2023-03-14T11:13:42;3.67;;;1.08;;
46607;SDS011;32330;51.936;7.184;2023-03-14T11:16:21;2.65;;;0.70;;
46607;SDS011;32330;51.936;7.184;2023-03-14T11:21:46;4.53;;;1.00;;
46607;SDS011;32330;51.936;7.184;2023-03-14T11:24:25;3.78;;;0.60;;
46607;SDS011;32330;51.936;7.184;2023-03-14T11:27:04;6.03;;;1.08;;
46607;SDS011;32330;51.936;7.184;2023-03-14T11:29:41;6.47;;;1.00;;
46607;SDS011;32330;51.936;7.184;2023-03-14T11:32:14;4.43;;;1.02;;
46607;SDS011;32330;51.936;7.184;2023-03-14T11:34:49;4.82;;;1.10;;
46607;SDS011;32330;51.936;7.184;2023-03-14T11:37:20;5.50;;;1.20;;
46607;SDS011;32330;51.936;7.184;2023-03-14T11:39:54;10.45;;;1.48;;
46607;SDS011;32330;51.936;7.184;2023-03-14T11:42:26;9.80;;;2.15;;
46607;SDS011;32330;51.936;7.184;2023-03-14T11:44:54;11.20;;;2.42;;
46607;SDS011;32330;51.936;7.184;2023-03-14T11:47:26;11.30;;;2.13;;
46607;SDS011;32330;51.936;7.184;2023-03-14T11:52:26;7.82;;;1.45;;
46607;SDS011;32330;51.936;7.184;2023-03-14T11:54:56;6.40;;;1.55;;
46607;SDS011;32330;51.936;7.184;2023-03-14T11:57:28;8.27;;;1.77;;
46607;SDS011;32330;51.936;7.184;2023-03-14T11:59:57;6.72;;;1.67;;
46607;SDS011;32330;51.936;7.184;2023-03-14T12:02:42;11.45;;;2.05;;
46607;SDS011;32330;51.936;7.184;2023-03-14T12:08:22;7.82;;;1.58;;
46607;SDS011;32330;51.936;7.184;2023-03-14T12:11:11;9.95;;;1.88;;
46607;SDS011;32330;51.936;7.184;2023-03-14T12:13:41;11.85;;;2.25;;
46607;SDS011;32330;51.936;7.184;2023-03-14T12:16:27;13.52;;;3.33;;
46607;SDS011;32330;51.936;7.184;2023-03-14T12:21:53;13.43;;;2.70;;
46607;SDS011;32330;51.936;7.184;2023-03-14T12:26:53;11.73;;;2.75;;
46607;SDS011;32330;51.936;7.184;2023-03-14T12:29:21;18.65;;;4.63;;
46607;SDS011;32330;51.936;7.184;2023-03-14T12:31:49;12.05;;;2.67;;
46607;SDS011;32330;51.936;7.184;2023-03-14T12:34:35;16.63;;;3.03;;
46607;SDS011;32330;51.936;7.184;2023-03-14T12:37:10;15.05;;;2.58;;
46607;SDS011;32330;51.936;7.184;2023-03-14T12:39:47;15.10;;;2.60;;
46607;SDS011;32330;51.936;7.184;2023-03-14T12:42:38;17.73;;;3.67;;
46607;SDS011;32330;51.936;7.184;2023-03-14T12:45:14;14.13;;;3.53;;
46607;SDS011;32330;51.936;7.184;2023-03-14T12:48:03;21.77;;;2.92;;
46607;SDS011;32330;51.936;7.184;2023-03-14T12:50:40;14.73;;;3.30;;
46607;SDS011;32330;51.936;7.184;2023-03-14T12:53:21;16.83;;;3.00;;
46607;SDS011;32330;51.936;7.184;2023-03-14T12:56:17;16.98;;;2.90;;
46607;SDS011;32330;51.936;7.184;2023-03-14T13:01:54;13.15;;;2.95;;
46607;SDS011;32330;51.936;7.184;2023-03-14T13:04:31;14.00;;;3.03;;
46607;SDS011;32330;51.936;7.184;2023-03-14T13:07:02;11.80;;;2.70;;
46607;SDS011;32330;51.936;7.184;2023-03-14T13:09:45;14.55;;;2.92;;
46607;SDS011;32330;51.936;7.184;2023-03-14T13:12:23;13.82;;;3.10;;
46607;SDS011;32330;51.936;7.184;2023-03-14T13:14:57;13.57;;;2.60;;
46607;SDS011;32330;51.936;7.184;2023-03-14T13:17:26;25.05;;;4.93;;
46607;SDS011;32330;51.936;7.184;2023-03-14T13:19:56;17.02;;;3.15;;
46607;SDS011;32330;51.936;7.184;2023-03-14T13:22:28;12.63;;;2.83;;
46607;SDS011;32330;51.936;7.184;2023-03-14T13:25:00;19.00;;;3.15;;
46607;SDS011;32330;51.936;7.184;2023-03-14T13:27:29;11.82;;;2.95;;
46607;SDS011;32330;51.936;7.184;2023-03-14T13:29:58;14.02;;;3.38;;
46607;SDS011;32330;51.936;7.184;2023-03-14T13:32:30;17.40;;;3.10;;
46607;SDS011;32330;51.936;7.184;2023-03-14T13:34:57;8.57;;;1.70;;
46607;SDS011;32330;51.936;7.184;2023-03-14T13:37:25;11.70;;;2.42;;
46607;SDS011;32330;51.936;7.184;2023-03-14T13:39:55;11.43;;;2.58;;
46607;SDS011;32330;51.936;7.184;2023-03-14T13:42:24;8.73;;;1.90;;
46607;SDS011;32330;51.936;7.184;2023-03-14T13:44:53;16.60;;;2.42;;
46607;SDS011;32330;51.936;7.184;2023-03-14T13:47:21;12.85;;;3.05;;
46607;SDS011;32330;51.936;7.184;2023-03-14T13:49:50;12.38;;;2.25;;
46607;SDS011;32330;51.936;7.184;2023-03-14T13:52:22;16.55;;;2.90;;
46607;SDS011;32330;51.936;7.184;2023-03-14T13:54:57;10.43;;;2.60;;
46607;SDS011;32330;51.936;7.184;2023-03-14T13:57:26;9.55;;;2.35;;
46607;SDS011;32330;51.936;7.184;2023-03-14T14:00:00;13.35;;;3.95;;
46607;SDS011;32330;51.936;7.184;2023-03-14T14:02:33;10.38;;;1.90;;
46607;SDS011;32330;51.936;7.184;2023-03-14T14:05:01;11.07;;;2.33;;
46607;SDS011;32330;51.936;7.184;2023-03-14T14:07:29;10.23;;;1.63;;
46607;SDS011;32330;51.936;7.184;2023-03-14T14:09:58;9.05;;;1.55;;
46607;SDS011;32330;51.936;7.184;2023-03-14T14:12:27;7.05;;;2.08;;
46607;SDS011;32330;51.936;7.184;2023-03-14T14:14:57;8.53;;;2.13;;
46607;SDS011;32330;51.936;7.184;2023-03-14T14:17:28;11.52;;;1.92;;
46607;SDS011;32330;51.936;7.184;2023-03-14T14:20:00;13.13;;;4.57;;
46607;SDS011;32330;51.936;7.184;2023-03-14T14:22:30;12.30;;;2.30;;
46607;SDS011;32330;51.936;7.184;2023-03-14T14:24:59;10.20;;;2.45;;
46607;SDS011;32330;51.936;7.184;2023-03-14T14:27:28;8.45;;;1.80;;
46607;SDS011;32330;51.936;7.184;2023-03-14T14:29:58;6.40;;;1.80;;
46607;SDS011;32330;51.936;7.184;2023-03-14T14:32:33;9.85;;;1.70;;
46607;SDS011;32330;51.936;7.184;2023-03-14T14:35:02;7.30;;;1.60;;
46607;SDS011;32330;51.936;7.184;2023-03-14T14:37:31;7.55;;;1.40;;
46607;SDS011;32330;51.936;7.184;2023-03-14T14:40:01;10.20;;;1.63;;
46607;SDS011;32330;51.936;7.184;2023-03-14T14:42:38;4.30;;;1.40;;
46607;SDS011;32330;51.936;7.184;2023-03-14T14:47:47;7.30;;;1.73;;
46607;SDS011;32330;51.936;7.184;2023-03-14T14:50:20;11.30;;;1.90;;
46607;SDS011;32330;51.936;7.184;2023-03-14T14:52:55;6.70;;;1.27;;
46607;SDS011;32330;51.936;7.184;2023-03-14T14:55:28;4.47;;;1.45;;
46607;SDS011;32330;51.936;7.184;2023-03-14T14:57:58;6.22;;;1.17;;
46607;SDS011;32330;51.936;7.184;2023-03-14T15:00:39;4.68;;;1.00;;
46607;SDS011;32330;51.936;7.184;2023-03-14T15:03:10;5.80;;;1.23;;
46607;SDS011;32330;51.936;7.184;2023-03-14T15:05:40;6.38;;;1.20;;
46607;SDS011;32330;51.936;7.184;2023-03-14T15:08:08;8.98;;;1.63;;
46607;SDS011;32330;51.936;7.184;2023-03-14T15:10:37;5.30;;;1.30;;
46607;SDS011;32330;51.936;7.184;2023-03-14T15:13:04;11.30;;;1.63;;
46607;SDS011;32330;51.936;7.184;2023-03-14T15:15:31;8.10;;;1.60;;
46607;SDS011;32330;51.936;7.184;2023-03-14T15:17:58;6.05;;;1.60;;
46607;SDS011;32330;51.936;7.184;2023-03-14T15:20:25;7.18;;;2.63;;
46607;SDS011;32330;51.936;7.184;2023-03-14T15:22:52;4.90;;;1.77;;
46607;SDS011;32330;51.936;7.184;2023-03-14T15:25:19;8.43;;;1.42;;
46607;SDS011;32330;51.936;7.184;2023-03-14T15:27:47;7.05;;;1.75;;
46607;SDS011;32330;51.936;7.184;2023-03-14T15:30:14;9.63;;;1.80;;
46607;SDS011;32330;51.936;7.184;2023-03-14T15:32:42;6.63;;;1.38;;
46607;SDS011;32330;51.936;7.184;2023-03-14T15:35:10;6.35;;;1.30;;
46607;SDS011;32330;51.936;7.184;2023-03-14T15:37:39;9.02;;;1.60;;
46607;SDS011;32330;51.936;7.184;2023-03-14T15:40:09;4.63;;;1.50;;
46607;SDS011;32330;51.936;7.184;2023-03-14T15:42:39;8.80;;;1.83;;
46607;SDS011;32330;51.936;7.184;2023-03-14T15:45:08;9.43;;;1.38;;
46607;SDS011;32330;51.936;7.184;2023-03-14T15:47:35;6.65;;;1.90;;
46607;SDS011;32330;51.936;7.184;2023-03-14T15:50:02;9.68;;;2.40;;
46607;SDS011;32330;51.936;7.184;2023-03-14T15:52:30;5.30;;;1.40;;
46607;SDS011;32330;51.936;7.184;2023-03-14T15:54:57;6.45;;;1.42;;
46607;SDS011;32330;51.936;7.184;2023-03-14T15:57:25;5.78;;;1.58;;
46607;SDS011;32330;51.936;7.184;2023-03-14T15:59:52;9.75;;;1.75;;
46607;SDS011;32330;51.936;7.184;2023-03-14T16:02:20;6.18;;;1.38;;
46607;SDS011;32330;51.936;7.184;2023-03-14T16:04:47;6.60;;;1.55;;
46607;SDS011;32330;51.936;7.184;2023-03-14T16:07:14;5.60;;;1.67;;
46607;SDS011;32330;51.936;7.184;2023-03-14T16:09:41;6.13;;;1.60;;
46607;SDS011;32330;51.936;7.184;2023-03-14T16:12:08;7.50;;;1.95;;
46607;SDS011;32330;51.936;7.184;2023-03-14T16:14:35;6.18;;;1.73;;
46607;SDS011;32330;51.936;7.184;2023-03-14T16:17:07;3.33;;;1.17;;
46607;SDS011;32330;51.936;7.184;2023-03-14T16:19:37;5.97;;;1.60;;
46607;SDS011;32330;51.936;7.184;2023-03-14T16:22:04;6.95;;;1.30;;
46607;SDS011;32330;51.936;7.184;2023-03-14T16:24:31;4.75;;;1.60;;
46607;SDS011;32330;51.936;7.184;2023-03-14T16:26:58;7.90;;;1.50;;
46607;SDS011;32330;51.936;7.184;2023-03-14T16:29:25;7.13;;;1.83;;
46607;SDS011;32330;51.936;7.184;2023-03-14T16:31:52;6.10;;;1.83;;
46607;SDS011;32330;51.936;7.184;2023-03-14T16:34:20;5.72;;;2.05;;
46607;SDS011;32330;51.936;7.184;2023-03-14T16:36:48;5.68;;;1.40;;
46607;SDS011;32330;51.936;7.184;2023-03-14T16:39:16;10.45;;;2.80;;
46607;SDS011;32330;51.936;7.184;2023-03-14T16:41:44;5.55;;;1.73;;
46607;SDS011;32330;51.936;7.184;2023-03-14T16:44:11;8.88;;;2.30;;
46607;SDS011;32330;51.936;7.184;2023-03-14T16:46:38;6.20;;;2.15;;
46607;SDS011;32330;51.936;7.184;2023-03-14T16:49:06;7.25;;;1.80;;
46607;SDS011;32330;51.936;7.184;2023-03-14T16:51:33;7.55;;;1.77;;
46607;SDS011;32330;51.936;7.184;2023-03-14T16:54:01;10.85;;;4.18;;
46607;SDS011;32330;51.936;7.184;2023-03-14T16:56:28;8.10;;;1.73;;
46607;SDS011;32330;51.936;7.184;2023-03-14T16:58:55;9.73;;;1.90;;
46607;SDS011;32330;51.936;7.184;2023-03-14T17:01:22;5.32;;;1.55;;
46607;SDS011;32330;51.936;7.184;2023-03-14T17:03:50;8.45;;;2.85;;
46607;SDS011;32330;51.936;7.184;2023-03-14T17:06:18;7.93;;;2.42;;
46607;SDS011;32330;51.936;7.184;2023-03-14T17:08:48;9.80;;;2.20;;
46607;SDS011;32330;51.936;7.184;2023-03-14T17:11:16;11.02;;;5.20;;
46607;SDS011;32330;51.936;7.184;2023-03-14T17:13:43;9.60;;;1.92;;
46607;SDS011;32330;51.936;7.184;2023-03-14T17:16:10;9.90;;;2.72;;
46607;SDS011;32330;51.936;7.184;2023-03-14T17:18:38;6.68;;;2.25;;
46607;SDS011;32330;51.936;7.184;2023-03-14T17:21:05;8.50;;;3.38;;
46607;SDS011;32330;51.936;7.184;2023-03-14T17:23:32;9.50;;;2.30;;
46607;SDS011;32330;51.936;7.184;2023-03-14T17:26:00;8.27;;;1.98;;
46607;SDS011;32330;51.936;7.184;2023-03-14T17:28:29;5.25;;;1.65;;
46607;SDS011;32330;51.936;7.184;2023-03-14T17:31:03;11.40;;;2.75;;
46607;SDS011;32330;51.936;7.184;2023-03-14T17:33:32;11.45;;;3.65;;
46607;SDS011;32330;51.936;7.184;2023-03-14T17:36:00;11.45;;;3.30;;
46607;SDS011;32330;51.936;7.184;2023-03-14T17:38:27;11.63;;;2.50;;
46607;SDS011;32330;51.936;7.184;2023-03-14T17:40:55;9.25;;;2.10;;
46607;SDS011;32330;51.936;7.184;2023-03-14T17:43:22;10.18;;;2.92;;
46607;SDS011;32330;51.936;7.184;2023-03-14T17:45:56;18.27;;;2.70;;
46607;SDS011;32330;51.936;7.184;2023-03-14T17:48:23;8.75;;;2.08;;
46607;SDS011;32330;51.936;7.184;2023-03-14T17:50:50;8.82;;;2.00;;
46607;SDS011;32330;51.936;7.184;2023-03-14T17:53:17;6.43;;;1.70;;
46607;SDS011;32330;51.936;7.184;2023-03-14T17:55:46;8.55;;;2.60;;
46607;SDS011;32330;51.936;7.184;2023-03-14T17:58:13;10.82;;;3.03;;
46607;SDS011;32330;51.936;7.184;2023-03-14T18:00:40;5.05;;;1.85;;
46607;SDS011;32330;51.936;7.184;2023-03-14T18:03:10;8.50;;;1.90;;
46607;SDS011;32330;51.936;7.184;2023-03-14T18:13:02;6.63;;;2.08;;
46607;SDS011;32330;51.936;7.184;2023-03-14T18:15:29;12.82;;;3.40;;
46607;SDS011;32330;51.936;7.184;2023-03-14T18:17:58;8.25;;;2.88;;
46607;SDS011;32330;51.936;7.184;2023-03-14T18:20:27;16.33;;;6.68;;
46607;SDS011;32330;51.936;7.184;2023-03-14T18:22:54;18.30;;;10.40;;
46607;SDS011;32330;51.936;7.184;2023-03-14T18:25:21;12.57;;;5.93;;
46607;SDS011;32330;51.936;7.184;2023-03-14T18:27:48;19.13;;;9.65;;
46607;SDS011;32330;51.936;7.184;2023-03-14T18:30:15;8.48;;;3.28;;
46607;SDS011;32330;51.936;7.184;2023-03-14T18:32:44;19.10;;;8.27;;
46607;SDS011;32330;51.936;7.184;2023-03-14T18:35:13;8.90;;;3.90;;
46607;SDS011;32330;51.936;7.184;2023-03-14T18:37:42;9.25;;;2.95;;
46607;SDS011;32330;51.936;7.184;2023-03-14T18:40:09;9.73;;;2.72;;
46607;SDS011;32330;51.936;7.184;2023-03-14T18:42:38;9.35;;;3.72;;
46607;SDS011;32330;51.936;7.184;2023-03-14T18:45:06;11.52;;;2.67;;
46607;SDS011;32330;51.936;7.184;2023-03-14T18:47:33;7.22;;;1.60;;
46607;SDS011;32330;51.936;7.184;2023-03-14T18:50:01;6.57;;;1.80;;
46607;SDS011;32330;51.936;7.184;2023-03-14T18:52:28;7.63;;;2.83;;
46607;SDS011;32330;51.936;7.184;2023-03-14T18:54:57;6.97;;;2.17;;
46607;SDS011;32330;51.936;7.184;2023-03-14T18:57:24;9.65;;;2.40;;
46607;SDS011;32330;51.936;7.184;2023-03-14T18:59:51;6.57;;;1.65;;
46607;SDS011;32330;51.936;7.184;2023-03-14T19:02:20;12.90;;;5.40;;
46607;SDS011;32330;51.936;7.184;2023-03-14T19:04:48;7.57;;;2.40;;
46607;SDS011;32330;51.936;7.184;2023-03-14T19:07:15;7.65;;;2.40;;
46607;SDS011;32330;51.936;7.184;2023-03-14T19:09:42;9.13;;;2.38;;
46607;SDS011;32330;51.936;7.184;2023-03-14T19:12:11;9.20;;;2.90;;
46607;SDS011;32330;51.936;7.184;2023-03-14T19:15:27;7.47;;;2.47;;
46607;SDS011;32330;51.936;7.184;2023-03-14T19:17:54;7.82;;;2.60;;
46607;SDS011;32330;51.936;7.184;2023-03-14T19:20:21;7.75;;;2.78;;
46607;SDS011;32330;51.936;7.184;2023-03-14T19:22:48;9.95;;;2.70;;
46607;SDS011;32330;51.936;7.184;2023-03-14T19:25:15;10.52;;;2.35;;
46607;SDS011;32330;51.936;7.184;2023-03-14T19:27:44;11.63;;;2.80;;
46607;SDS011;32330;51.936;7.184;2023-03-14T19:30:11;7.43;;;2.35;;
46607;SDS011;32330;51.936;7.184;2023-03-14T19:32:38;12.82;;;2.85;;
46607;SDS011;32330;51.936;7.184;2023-03-14T19:35:06;5.90;;;2.60;;
46607;SDS011;32330;51.936;7.184;2023-03-14T19:37:33;9.90;;;2.70;;
46607;SDS011;32330;51.936;7.184;2023-03-14T19:40:00;8.55;;;2.95;;
46607;SDS011;32330;51.936;7.184;2023-03-14T19:42:29;12.77;;;3.25;;
46607;SDS011;32330;51.936;7.184;2023-03-14T19:44:58;8.57;;;2.88;;
46607;SDS011;32330;51.936;7.184;2023-03-14T19:47:25;8.77;;;3.42;;
46607;SDS011;32330;51.936;7.184;2023-03-14T19:49:53;8.35;;;2.53;;
46607;SDS011;32330;51.936;7.184;2023-03-14T19:52:22;11.00;;;2.88;;
46607;SDS011;32330;51.936;7.184;2023-03-14T19:54:49;7.82;;;2.22;;
46607;SDS011;32330;51.936;7.184;2023-03-14T19:57:16;10.30;;;2.53;;
46607;SDS011;32330;51.936;7.184;2023-03-14T19:59:43;4.97;;;1.73;;
46607;SDS011;32330;51.936;7.184;2023-03-14T20:02:12;8.82;;;2.10;;
46607;SDS011;32330;51.936;7.184;2023-03-14T20:04:40;10.93;;;2.10;;
46607;SDS011;32330;51.936;7.184;2023-03-14T20:07:08;6.97;;;2.45;;
46607;SDS011;32330;51.936;7.184;2023-03-14T20:09:36;7.82;;;2.45;;
46607;SDS011;32330;51.936;7.184;2023-03-14T20:12:03;9.38;;;1.90;;
46607;SDS011;32330;51.936;7.184;2023-03-14T20:14:30;8.93;;;4.38;;
46607;SDS011;32330;51.936;7.184;2023-03-14T20:16:57;8.63;;;2.20;;
46607;SDS011;32330;51.936;7.184;2023-03-14T20:19:26;12.35;;;2.67;;
46607;SDS011;32330;51.936;7.184;2023-03-14T20:21:53;6.95;;;2.10;;
46607;SDS011;32330;51.936;7.184;2023-03-14T20:24:20;10.35;;;2.47;;
46607;SDS011;32330;51.936;7.184;2023-03-14T20:26:48;5.82;;;1.80;;
46607;SDS011;32330;51.936;7.184;2023-03-14T20:29:15;5.35;;;1.70;;